createdAt,value
2022-09-23T00:02:03.671Z,19.01
2022-09-23T00:04:33.000Z,18.98
2022-09-23T00:07:02.492Z,18.95
2022-09-23T00:09:31.893Z,18.91
2022-09-23T00:12:03.750Z,18.88
2022-09-23T00:14:36.080Z,18.84
2022-09-23T00:17:05.357Z,18.79
2022-09-23T00:19:35.003Z,18.75
2022-09-23T00:22:04.407Z,18.73
2022-09-23T00:24:33.645Z,18.73
2022-09-23T00:27:03.007Z,18.71
2022-09-23T00:29:32.973Z,18.67
2022-09-23T00:32:02.539Z,18.59
2022-09-23T00:34:32.005Z,18.55
2022-09-23T00:37:01.251Z,18.50
2022-09-23T00:39:30.454Z,18.41
2022-09-23T00:41:59.802Z,18.33
2022-09-23T00:44:51.709Z,18.26
2022-09-23T00:47:30.403Z,18.18
2022-09-23T00:50:22.608Z,18.10
2022-09-23T00:52:56.435Z,18.02
2022-09-23T00:55:36.268Z,17.99
2022-09-23T00:58:12.076Z,17.98
2022-09-23T01:00:41.719Z,17.93
2022-09-23T01:03:13.061Z,17.87
2022-09-23T01:05:44.078Z,17.77
2022-09-23T01:08:15.796Z,17.69
2022-09-23T01:11:02.647Z,17.57
2022-09-23T01:13:40.179Z,17.42
2022-09-23T01:16:47.258Z,17.31
2022-09-23T01:20:21.586Z,17.20
2022-09-23T01:23:15.463Z,17.07
2022-09-23T01:26:23.996Z,16.86
2022-09-23T01:29:39.845Z,16.66
2022-09-23T01:32:55.272Z,16.54
2022-09-23T01:35:45.868Z,16.47
2022-09-23T01:38:43.404Z,16.38
2022-09-23T01:41:53.301Z,16.27
2022-09-23T01:44:44.745Z,16.03
2022-09-23T01:47:45.285Z,15.94
2022-09-23T01:50:56.163Z,15.84
2022-09-23T01:53:39.720Z,15.69
2022-09-23T01:56:44.613Z,15.60
2022-09-23T01:59:38.355Z,15.51
2022-09-23T02:02:29.574Z,15.30
2022-09-23T02:05:21.161Z,15.07
2022-09-23T02:08:11.371Z,14.98
2022-09-23T02:10:50.566Z,14.86
2022-09-23T02:13:35.933Z,14.70
2022-09-23T02:16:21.254Z,14.44
2022-09-23T02:18:59.313Z,14.34
2022-09-23T02:21:37.218Z,14.27
2022-09-23T02:24:21.520Z,14.16
2022-09-23T02:27:42.695Z,14.04
2022-09-23T02:30:28.288Z,13.85
2022-09-23T02:33:06.760Z,13.69
2022-09-23T02:35:52.897Z,13.57
2022-09-23T02:38:48.245Z,13.43
2022-09-23T02:41:51.174Z,13.31
2022-09-23T02:44:24.691Z,13.22
2022-09-23T02:46:54.382Z,13.11
2022-09-23T02:49:32.580Z,12.94
2022-09-23T02:52:06.780Z,12.83
2022-09-23T02:54:38.305Z,12.83
2022-09-23T02:57:09.587Z,12.82
2022-09-23T02:59:40.237Z,12.78
2022-09-23T03:02:45.873Z,12.74
2022-09-23T03:05:34.598Z,12.60
2022-09-23T03:08:20.471Z,12.52
2022-09-23T03:11:05.761Z,12.51
2022-09-23T03:14:07.969Z,12.52
2022-09-23T03:16:49.275Z,12.58
2022-09-23T03:19:49.532Z,12.61
2022-09-23T03:22:40.653Z,12.59
2022-09-23T03:25:16.986Z,12.56
2022-09-23T03:27:47.756Z,12.55
2022-09-23T03:30:17.414Z,12.51
2022-09-23T03:32:48.579Z,12.42
2022-09-23T03:35:18.693Z,12.22
2022-09-23T03:38:05.298Z,12.05
2022-09-23T03:40:42.901Z,11.91
2022-09-23T03:43:14.674Z,11.75
2022-09-23T03:45:43.959Z,11.58
2022-09-23T03:48:14.835Z,11.42
2022-09-23T03:50:45.587Z,11.28
2022-09-23T03:53:15.553Z,11.15
2022-09-23T03:55:44.826Z,11.02
2022-09-23T03:58:14.128Z,10.93
2022-09-23T04:00:44.524Z,10.83
2022-09-23T04:03:13.508Z,10.73
2022-09-23T04:05:42.650Z,10.61
2022-09-23T04:08:11.900Z,10.52
2022-09-23T04:10:43.702Z,10.43
2022-09-23T04:13:13.411Z,10.31
2022-09-23T04:15:43.071Z,10.23
2022-09-23T04:18:12.189Z,10.16
2022-09-23T04:20:41.898Z,10.06
2022-09-23T04:23:11.109Z,9.96
2022-09-23T04:25:50.407Z,9.90
2022-09-23T04:28:19.420Z,9.83
2022-09-23T04:30:49.919Z,9.77
2022-09-23T04:33:20.100Z,9.67
2022-09-23T04:35:53.918Z,9.62
2022-09-23T04:38:24.098Z,9.59
2022-09-23T04:40:53.509Z,9.52
2022-09-23T04:43:24.497Z,9.41
2022-09-23T04:46:05.474Z,9.33
2022-09-23T04:48:40.696Z,9.22
2022-09-23T04:51:14.914Z,9.16
2022-09-23T04:53:47.558Z,9.11
2022-09-23T04:56:20.028Z,9.06
2022-09-23T04:58:50.413Z,8.99
2022-09-23T05:01:27.636Z,8.94
2022-09-23T05:04:03.501Z,8.97
2022-09-23T05:06:36.006Z,9.00
2022-09-23T05:09:09.530Z,9.08
2022-09-23T05:11:38.638Z,9.18
2022-09-23T05:14:07.555Z,9.20
2022-09-23T05:16:37.362Z,9.21
2022-09-23T05:19:06.864Z,9.27
2022-09-23T05:21:38.822Z,9.31
2022-09-23T05:24:08.410Z,9.40
2022-09-23T05:26:37.629Z,9.48
2022-09-23T05:29:07.034Z,9.50
2022-09-23T05:31:36.710Z,9.54
2022-09-23T05:34:07.713Z,9.65
2022-09-23T05:36:39.241Z,9.76
2022-09-23T05:39:09.804Z,9.82
2022-09-23T05:41:39.740Z,9.90
2022-09-23T05:44:08.990Z,9.99
2022-09-23T05:46:38.522Z,10.03
2022-09-23T05:49:08.467Z,10.06
2022-09-23T05:51:37.754Z,10.06
2022-09-23T05:54:07.686Z,10.04
2022-09-23T05:56:38.282Z,10.04
2022-09-23T05:59:07.975Z,10.03
2022-09-23T06:01:39.515Z,10.00
2022-09-23T06:04:13.165Z,9.99
2022-09-23T06:06:44.233Z,10.01
2022-09-23T06:09:16.132Z,10.01
2022-09-23T06:11:45.579Z,10.02
2022-09-23T06:14:15.992Z,10.02
2022-09-23T06:16:45.254Z,10.06
2022-09-23T06:19:15.053Z,10.06
2022-09-23T06:21:44.168Z,10.03
2022-09-23T06:24:16.984Z,10.00
2022-09-23T06:26:47.263Z,9.98
2022-09-23T06:29:16.748Z,9.99
2022-09-23T06:31:46.145Z,9.98
2022-09-23T06:34:16.082Z,9.97
2022-09-23T06:36:48.758Z,9.95
2022-09-23T06:39:18.541Z,9.94
2022-09-23T06:41:48.136Z,9.92
2022-09-23T06:44:17.327Z,9.88
2022-09-23T06:46:46.542Z,9.85
2022-09-23T06:49:15.894Z,9.80
2022-09-23T06:51:45.014Z,9.79
2022-09-23T06:54:14.655Z,9.81
2022-09-23T06:56:48.495Z,9.81
2022-09-23T06:59:18.032Z,9.79
2022-09-23T07:01:49.180Z,9.77
2022-09-23T07:04:18.415Z,9.73
2022-09-23T07:06:47.820Z,9.71
2022-09-23T07:09:17.174Z,9.71
2022-09-23T07:11:48.749Z,9.65
2022-09-23T07:14:18.381Z,9.63
2022-09-23T07:16:51.670Z,9.63
2022-09-23T07:19:20.866Z,9.62
2022-09-23T07:21:50.439Z,9.57
2022-09-23T07:24:19.691Z,9.52
2022-09-23T07:26:49.985Z,9.49
2022-09-23T07:29:19.291Z,9.44
2022-09-23T07:31:48.395Z,9.30
2022-09-23T07:34:17.724Z,9.25
2022-09-23T07:36:46.787Z,9.21
2022-09-23T07:39:16.170Z,9.19
2022-09-23T07:41:45.635Z,9.10
2022-09-23T07:44:14.785Z,8.99
2022-09-23T07:46:44.389Z,8.89
2022-09-23T07:49:14.721Z,8.76
2022-09-23T07:51:47.231Z,8.67
2022-09-23T07:54:19.473Z,8.55
2022-09-23T07:56:49.610Z,8.44
2022-09-23T07:59:20.595Z,8.34
2022-09-23T08:01:56.234Z,8.30
2022-09-23T08:04:32.610Z,8.29
2022-09-23T08:07:05.757Z,8.30
2022-09-23T08:09:42.833Z,8.33
2022-09-23T08:12:17.025Z,8.37
2022-09-23T08:14:46.714Z,8.37
2022-09-23T08:17:16.273Z,8.39
2022-09-23T08:19:45.371Z,8.42
2022-09-23T08:22:14.555Z,8.41
2022-09-23T08:24:44.067Z,8.22
2022-09-23T08:27:13.692Z,7.96
2022-09-23T08:29:42.981Z,7.75
2022-09-23T08:32:12.281Z,7.54
2022-09-23T08:34:42.705Z,7.38
2022-09-23T08:37:15.879Z,7.20
2022-09-23T08:39:45.693Z,7.09
2022-09-23T08:42:28.729Z,6.98
2022-09-23T08:45:05.546Z,6.87
2022-09-23T08:47:51.645Z,6.72
2022-09-23T08:50:43.664Z,6.63
2022-09-23T08:53:51.817Z,6.58
2022-09-23T08:56:26.181Z,6.54
2022-09-23T08:59:22.195Z,6.57
2022-09-23T09:02:01.330Z,6.59
2022-09-23T09:04:45.457Z,6.70
2022-09-23T09:07:41.513Z,6.89
2022-09-23T09:10:27.829Z,7.10
2022-09-23T09:13:08.656Z,7.19
2022-09-23T09:15:49.546Z,7.27
2022-09-23T09:18:24.019Z,7.33
2022-09-23T09:21:14.328Z,7.35
2022-09-23T09:23:59.564Z,7.34
2022-09-23T09:26:35.574Z,7.36
2022-09-23T09:29:35.059Z,7.41
2022-09-23T09:32:26.539Z,7.46
2022-09-23T09:35:10.814Z,7.46
2022-09-23T09:37:49.067Z,7.45
2022-09-23T09:40:21.411Z,7.46
2022-09-23T09:42:52.634Z,7.47
2022-09-23T09:46:09.881Z,7.49
2022-09-23T09:49:02.055Z,7.51
2022-09-23T09:51:31.941Z,7.51
2022-09-23T09:54:27.091Z,7.54
2022-09-23T09:56:57.368Z,7.63
2022-09-23T09:59:30.767Z,7.74
2022-09-23T10:02:25.539Z,7.83
2022-09-23T10:05:08.222Z,7.84
2022-09-23T10:07:37.869Z,7.81
2022-09-23T10:10:36.615Z,7.78
2022-09-23T10:13:21.074Z,7.73
2022-09-23T10:15:50.944Z,7.67
2022-09-23T10:18:40.629Z,7.61
2022-09-23T10:21:27.706Z,7.54
2022-09-23T10:24:01.930Z,7.46
2022-09-23T10:26:34.337Z,7.38
2022-09-23T10:29:32.005Z,7.33
2022-09-23T10:32:38.652Z,7.27
2022-09-23T10:35:11.728Z,7.20
2022-09-23T10:37:52.148Z,7.15
2022-09-23T10:41:03.303Z,7.14
2022-09-23T10:44:15.175Z,7.14
2022-09-23T10:47:15.803Z,7.16
2022-09-23T10:50:59.477Z,7.19
2022-09-23T10:54:09.266Z,7.25
2022-09-23T10:57:02.477Z,7.28
2022-09-23T11:00:05.787Z,7.33
2022-09-23T11:03:03.934Z,7.36
2022-09-23T11:06:03.649Z,7.35
2022-09-23T11:08:57.014Z,7.35
2022-09-23T11:11:57.206Z,7.37
2022-09-23T11:15:08.612Z,7.39
2022-09-23T11:18:17.806Z,7.40
2022-09-23T11:21:15.554Z,7.36
2022-09-23T11:24:29.207Z,7.32
2022-09-23T11:27:49.880Z,7.29
2022-09-23T11:30:22.425Z,7.26
2022-09-23T11:33:32.865Z,7.25
2022-09-23T11:36:33.916Z,7.25
2022-09-23T11:39:16.145Z,7.25
2022-09-23T11:41:48.169Z,7.21
2022-09-23T11:44:32.542Z,7.18
2022-09-23T11:47:20.669Z,7.16
2022-09-23T11:50:00.554Z,7.12
2022-09-23T11:52:37.481Z,7.09
2022-09-23T11:55:22.982Z,7.09
2022-09-23T11:58:15.881Z,7.08
2022-09-23T12:01:08.393Z,7.04
2022-09-23T12:03:49.687Z,7.03
2022-09-23T12:07:02.382Z,6.99
2022-09-23T12:10:01.391Z,6.97
2022-09-23T12:13:31.592Z,6.96
2022-09-23T12:16:36.660Z,6.95
2022-09-23T12:19:56.561Z,6.94
2022-09-23T12:23:07.675Z,6.89
2022-09-23T12:26:03.460Z,6.90
2022-09-23T12:28:46.165Z,6.94
2022-09-23T12:31:23.776Z,6.95
2022-09-23T12:33:55.694Z,6.93
2022-09-23T12:36:40.592Z,6.86
2022-09-23T12:39:31.849Z,6.77
2022-09-23T12:42:04.616Z,6.68
2022-09-23T12:44:43.097Z,6.59
2022-09-23T12:47:29.265Z,6.51
2022-09-23T12:49:59.215Z,6.47
2022-09-23T12:52:36.819Z,6.43
2022-09-23T12:55:24.583Z,6.38
2022-09-23T12:57:54.144Z,6.33
2022-09-23T13:00:33.538Z,6.30
2022-09-23T13:03:22.511Z,6.32
2022-09-23T13:06:20.685Z,6.36
2022-09-23T13:08:54.526Z,6.39
2022-09-23T13:11:34.571Z,6.44
2022-09-23T13:14:08.078Z,6.52
2022-09-23T13:16:47.079Z,6.59
2022-09-23T13:19:28.285Z,6.69
2022-09-23T13:22:08.925Z,6.76
2022-09-23T13:24:45.876Z,6.81
2022-09-23T13:27:20.744Z,6.82
2022-09-23T13:30:25.059Z,6.82
2022-09-23T13:33:24.064Z,6.83
2022-09-23T13:36:00.297Z,6.81
2022-09-23T13:38:33.178Z,6.81
2022-09-23T13:41:09.276Z,6.80
2022-09-23T13:44:06.815Z,6.76
2022-09-23T13:46:55.133Z,6.74
2022-09-23T13:49:33.701Z,6.74
2022-09-23T13:52:07.888Z,6.71
2022-09-23T13:54:51.991Z,6.71
2022-09-23T13:57:39.012Z,6.72
2022-09-23T14:00:22.674Z,6.73
2022-09-23T14:02:54.072Z,6.74
2022-09-23T14:05:28.215Z,6.74
2022-09-23T14:07:58.882Z,6.74
2022-09-23T14:10:29.457Z,6.74
2022-09-23T14:13:00.614Z,6.74
2022-09-23T14:15:31.588Z,6.71
2022-09-23T14:18:08.242Z,6.69
2022-09-23T14:20:51.323Z,6.67
2022-09-23T14:23:21.180Z,6.65
2022-09-23T14:25:52.676Z,6.64
2022-09-23T14:28:28.570Z,6.65
2022-09-23T14:30:59.726Z,6.65
2022-09-23T14:33:34.276Z,6.66
2022-09-23T14:36:35.992Z,6.65
2022-09-23T14:39:10.585Z,6.67
2022-09-23T14:41:44.879Z,6.67
2022-09-23T14:44:40.347Z,6.65
2022-09-23T14:47:16.450Z,6.62
2022-09-23T14:50:12.049Z,6.60
2022-09-23T14:52:55.544Z,6.61
2022-09-23T14:55:32.558Z,6.61
2022-09-23T14:58:14.697Z,6.61
2022-09-23T15:01:01.662Z,6.64
2022-09-23T15:03:31.040Z,6.71
2022-09-23T15:06:10.245Z,6.82
2022-09-23T15:08:39.868Z,6.93
2022-09-23T15:11:10.031Z,7.06
2022-09-23T15:13:48.110Z,7.21
2022-09-23T15:16:31.015Z,7.38
2022-09-23T15:19:02.819Z,7.59
2022-09-23T15:21:45.229Z,7.79
2022-09-23T15:24:47.144Z,7.99
2022-09-23T15:27:34.344Z,8.15
2022-09-23T15:30:21.027Z,8.26
2022-09-23T15:32:50.515Z,8.34
2022-09-23T15:35:26.708Z,8.41
2022-09-23T15:38:01.549Z,8.45
2022-09-23T15:40:37.483Z,8.52
2022-09-23T15:43:28.023Z,8.60
2022-09-23T15:46:08.930Z,8.67
2022-09-23T15:48:58.871Z,8.72
2022-09-23T15:51:30.312Z,8.74
2022-09-23T15:53:59.998Z,8.80
2022-09-23T15:56:28.874Z,8.87
2022-09-23T15:58:58.578Z,8.93
2022-09-23T16:01:32.985Z,8.99
2022-09-23T16:04:05.694Z,9.08
2022-09-23T16:06:37.052Z,9.14
2022-09-23T16:09:06.508Z,9.19
2022-09-23T16:11:36.912Z,9.24
2022-09-23T16:14:06.474Z,9.33
2022-09-23T16:16:35.709Z,9.39
2022-09-23T16:19:04.967Z,9.40
2022-09-23T16:21:34.988Z,9.41
2022-09-23T16:24:05.431Z,9.42
2022-09-23T16:26:41.419Z,9.46
2022-09-23T16:29:12.661Z,9.53
2022-09-23T16:31:42.460Z,9.64
2022-09-23T16:34:11.955Z,9.73
2022-09-23T16:36:44.598Z,9.83
2022-09-23T16:39:15.505Z,9.94
2022-09-23T16:41:44.920Z,10.01
2022-09-23T16:44:15.370Z,10.10
2022-09-23T16:46:44.622Z,10.15
2022-09-23T16:49:13.888Z,10.21
2022-09-23T16:51:43.061Z,10.29
2022-09-23T16:54:14.477Z,10.36
2022-09-23T16:56:46.172Z,10.40
2022-09-23T16:59:17.794Z,10.46
2022-09-23T17:02:05.485Z,10.46
2022-09-23T17:04:35.095Z,10.52
2022-09-23T17:07:04.450Z,10.59
2022-09-23T17:09:34.099Z,10.63
2022-09-23T17:12:28.855Z,10.68
2022-09-23T17:14:57.928Z,10.73
2022-09-23T17:17:28.869Z,10.77
2022-09-23T17:19:58.054Z,10.83
2022-09-23T17:22:27.263Z,10.89
2022-09-23T17:25:06.407Z,10.97
2022-09-23T17:27:36.665Z,11.07
2022-09-23T17:30:07.476Z,11.12
2022-09-23T17:32:36.530Z,11.21
2022-09-23T17:35:06.010Z,11.33
2022-09-23T17:37:35.881Z,11.39
2022-09-23T17:40:06.788Z,11.46
2022-09-23T17:42:40.335Z,11.49
2022-09-23T17:45:13.480Z,11.46
2022-09-23T17:47:43.283Z,11.45
2022-09-23T17:50:12.375Z,11.45
2022-09-23T17:52:41.471Z,11.48
2022-09-23T17:55:13.248Z,11.51
2022-09-23T17:57:42.551Z,11.57
2022-09-23T18:00:12.784Z,11.63
2022-09-23T18:02:41.982Z,11.70
2022-09-23T18:05:11.452Z,11.75
2022-09-23T18:07:41.019Z,11.83
2022-09-23T18:10:11.196Z,11.89
2022-09-23T18:12:40.422Z,11.96
2022-09-23T18:15:09.963Z,11.98
2022-09-23T18:17:39.149Z,12.01
2022-09-23T18:20:09.438Z,12.05
2022-09-23T18:22:38.714Z,12.07
2022-09-23T18:25:28.514Z,12.13
2022-09-23T18:27:57.759Z,12.24
2022-09-23T18:30:28.278Z,12.35
2022-09-23T18:32:57.324Z,12.45
2022-09-23T18:35:27.189Z,12.56
2022-09-23T18:37:57.055Z,12.68
2022-09-23T18:40:26.189Z,12.76
2022-09-23T18:42:55.558Z,12.80
2022-09-23T18:45:24.825Z,12.85
2022-09-23T18:48:12.829Z,12.86
2022-09-23T18:50:44.099Z,12.85
2022-09-23T18:53:13.506Z,12.87
2022-09-23T18:55:43.904Z,12.95
2022-09-23T18:58:14.299Z,13.05
2022-09-23T19:00:43.750Z,13.16
2022-09-23T19:03:13.124Z,13.24
2022-09-23T19:05:42.408Z,13.31
2022-09-23T19:08:11.693Z,13.38
2022-09-23T19:10:41.045Z,13.45
2022-09-23T19:13:10.317Z,13.53
2022-09-23T19:15:39.729Z,13.56
2022-09-23T19:18:09.007Z,13.57
2022-09-23T19:20:38.229Z,13.56
2022-09-23T19:23:07.828Z,13.54
2022-09-23T19:25:38.534Z,13.52
2022-09-23T19:28:09.311Z,13.50
2022-09-23T19:30:39.910Z,13.44
2022-09-23T19:33:10.989Z,13.39
2022-09-23T19:35:52.898Z,13.35
2022-09-23T19:38:22.565Z,13.29
2022-09-23T19:40:56.110Z,13.23
2022-09-23T19:43:26.173Z,13.20
2022-09-23T19:45:58.772Z,13.21
2022-09-23T19:48:28.155Z,13.26
2022-09-23T19:50:57.470Z,13.33
2022-09-23T19:53:29.544Z,13.46
2022-09-23T19:55:59.006Z,13.57
2022-09-23T19:58:28.348Z,13.72
2022-09-23T20:00:57.937Z,13.90
2022-09-23T20:03:28.024Z,14.12
2022-09-23T20:06:01.099Z,14.31
2022-09-23T20:08:30.284Z,14.39
2022-09-23T20:10:59.633Z,14.40
2022-09-23T20:13:29.945Z,14.46
2022-09-23T20:16:00.578Z,14.55
2022-09-23T20:18:30.982Z,14.66
2022-09-23T20:20:59.981Z,14.75
2022-09-23T20:23:30.697Z,14.79
2022-09-23T20:26:23.943Z,14.78
2022-09-23T20:28:53.354Z,14.85
2022-09-23T20:31:24.241Z,14.88
2022-09-23T20:33:58.373Z,14.90
2022-09-23T20:36:30.147Z,14.90
2022-09-23T20:39:05.194Z,14.90
2022-09-23T20:41:38.522Z,14.92
2022-09-23T20:44:13.544Z,14.96
2022-09-23T20:46:48.497Z,14.99
2022-09-23T20:49:21.869Z,14.91
2022-09-23T20:51:51.486Z,14.80
2022-09-23T20:54:21.160Z,14.72
2022-09-23T20:56:50.730Z,14.67
2022-09-23T20:59:20.309Z,14.53
2022-09-23T21:01:54.863Z,14.40
2022-09-23T21:04:28.230Z,14.28
2022-09-23T21:06:59.149Z,14.17
2022-09-23T21:09:32.013Z,14.09
2022-09-23T21:12:01.394Z,14.06
2022-09-23T21:14:32.412Z,13.97
2022-09-23T21:17:01.844Z,13.88
2022-09-23T21:19:31.381Z,13.80
2022-09-23T21:22:00.861Z,13.77
2022-09-23T21:25:25.699Z,13.74
2022-09-23T21:27:20.442Z,13.72
2022-09-23T21:29:49.630Z,13.74
2022-09-23T21:32:18.874Z,13.76
2022-09-23T21:34:49.421Z,13.77
2022-09-23T21:37:19.473Z,13.77
2022-09-23T21:40:08.669Z,13.75
2022-09-23T21:42:37.837Z,13.76
2022-09-23T21:45:08.186Z,13.79
2022-09-23T21:47:37.370Z,13.80
2022-09-23T21:50:07.306Z,13.80
2022-09-23T21:52:37.226Z,13.80
2022-09-23T21:55:06.938Z,13.84
2022-09-23T21:57:36.384Z,13.89
2022-09-23T22:00:08.378Z,13.91
2022-09-23T22:02:40.855Z,13.91
2022-09-23T22:05:10.390Z,13.92
2022-09-23T22:07:39.764Z,13.90
2022-09-23T22:10:09.646Z,13.89
2022-09-23T22:12:39.041Z,13.88
2022-09-23T22:15:09.114Z,13.85
2022-09-23T22:17:38.095Z,13.80
2022-09-23T22:20:08.372Z,13.72
2022-09-23T22:22:37.870Z,13.62
2022-09-23T22:25:07.937Z,13.56
2022-09-23T22:27:56.937Z,13.51
2022-09-23T22:30:44.392Z,13.43
2022-09-23T22:33:18.166Z,13.32
2022-09-23T22:35:47.595Z,13.28
2022-09-23T22:38:17.436Z,13.24
2022-09-23T22:40:46.910Z,13.17
2022-09-23T22:43:16.381Z,13.12
2022-09-23T22:45:52.742Z,13.08
2022-09-23T22:48:22.156Z,13.05
2022-09-23T22:50:51.362Z,13.01
2022-09-23T22:53:21.264Z,12.99
2022-09-23T22:56:06.034Z,13.01
2022-09-23T22:58:35.526Z,13.01
2022-09-23T23:01:04.648Z,13.04
2022-09-23T23:03:36.232Z,13.06
2022-09-23T23:06:06.733Z,13.07
2022-09-23T23:08:37.240Z,13.08
2022-09-23T23:11:11.118Z,13.11
2022-09-23T23:13:44.954Z,13.12
2022-09-23T23:16:14.934Z,13.14
2022-09-23T23:18:46.749Z,13.15
2022-09-23T23:21:18.349Z,13.16
2022-09-23T23:23:51.621Z,13.15
2022-09-23T23:26:30.425Z,13.14
2022-09-23T23:29:00.747Z,13.09
2022-09-23T23:31:33.097Z,13.04
2022-09-23T23:34:02.442Z,13.03
2022-09-23T23:36:32.172Z,13.01
2022-09-23T23:39:01.714Z,12.97
2022-09-23T23:41:31.272Z,12.95
2022-09-23T23:44:02.074Z,12.94
2022-09-23T23:46:33.664Z,12.94
2022-09-23T23:49:03.021Z,12.92
2022-09-23T23:51:32.290Z,12.91
2022-09-23T23:54:02.047Z,12.91
2022-09-23T23:56:35.472Z,12.91
2022-09-23T23:59:05.995Z,12.91
